createdAt,value
2023-04-29T00:02:14.462Z,25.16
2023-04-29T00:04:42.210Z,25.13
2023-04-29T00:07:10.137Z,25.16
2023-04-29T00:09:40.012Z,25.17
2023-04-29T00:12:12.155Z,25.13
2023-04-29T00:14:39.743Z,25.11
2023-04-29T00:17:07.241Z,25.12
2023-04-29T00:19:38.155Z,25.14
2023-04-29T00:22:06.024Z,25.10
2023-04-29T00:24:36.179Z,25.09
2023-04-29T00:27:09.058Z,25.12
2023-04-29T00:29:36.862Z,25.10
2023-04-29T00:32:05.389Z,25.08
2023-04-29T00:34:32.850Z,25.08
2023-04-29T00:37:02.777Z,25.08
2023-04-29T00:39:37.214Z,25.06
2023-04-29T00:42:07.182Z,25.07
2023-04-29T00:44:34.659Z,25.09
2023-04-29T00:47:04.880Z,25.12
2023-04-29T00:49:37.421Z,25.07
2023-04-29T00:52:08.234Z,25.09
2023-04-29T00:54:37.313Z,25.06
2023-04-29T00:57:07.283Z,25.06
2023-04-29T00:59:35.984Z,25.05
2023-04-29T01:02:06.643Z,25.07
2023-04-29T01:04:36.955Z,25.06
2023-04-29T01:07:16.896Z,25.07
2023-04-29T01:10:09.052Z,25.13
2023-04-29T01:12:36.693Z,25.22
2023-04-29T01:15:11.097Z,25.24
2023-04-29T01:17:45.000Z,25.36
2023-04-29T01:20:19.269Z,25.40
2023-04-29T01:22:47.472Z,25.49
2023-04-29T01:25:15.197Z,25.51
2023-04-29T01:28:31.238Z,25.53
2023-04-29T01:31:16.050Z,25.52
2023-04-29T01:34:01.740Z,25.53
2023-04-29T01:36:57.332Z,25.56
2023-04-29T01:39:50.507Z,25.56
2023-04-29T01:42:27.436Z,25.61
2023-04-29T01:45:05.389Z,25.60
2023-04-29T01:47:34.024Z,25.59
2023-04-29T01:50:06.974Z,25.58
2023-04-29T01:52:37.470Z,25.60
2023-04-29T01:55:08.211Z,25.62
2023-04-29T01:58:02.276Z,25.63
2023-04-29T02:00:51.217Z,25.62
2023-04-29T02:03:22.613Z,25.61
2023-04-29T02:05:53.061Z,25.65
2023-04-29T02:08:23.578Z,25.58
2023-04-29T02:10:56.546Z,25.59
2023-04-29T02:13:41.224Z,25.62
2023-04-29T02:16:13.347Z,25.59
2023-04-29T02:18:53.939Z,25.58
2023-04-29T02:21:22.949Z,25.59
2023-04-29T02:23:56.512Z,25.64
2023-04-29T02:26:28.373Z,25.60
2023-04-29T02:28:57.624Z,25.58
2023-04-29T02:31:25.290Z,25.56
2023-04-29T02:33:57.742Z,25.60
2023-04-29T02:36:28.521Z,25.56
2023-04-29T02:38:56.457Z,25.60
2023-04-29T02:41:29.277Z,25.59
2023-04-29T02:44:00.407Z,25.58
2023-04-29T02:46:32.929Z,25.61
2023-04-29T02:49:04.009Z,25.60
2023-04-29T02:51:34.057Z,25.60
2023-04-29T02:54:03.530Z,25.63
2023-04-29T02:56:31.146Z,25.60
2023-04-29T02:59:04.514Z,25.59
2023-04-29T03:01:34.459Z,25.64
2023-04-29T03:04:07.534Z,25.59
2023-04-29T03:06:40.891Z,25.52
2023-04-29T03:09:08.371Z,25.44
2023-04-29T03:11:35.851Z,25.41
2023-04-29T03:14:05.991Z,25.36
2023-04-29T03:16:33.925Z,25.33
2023-04-29T03:19:04.857Z,25.28
2023-04-29T03:21:32.768Z,25.23
2023-04-29T03:24:03.503Z,25.23
2023-04-29T03:26:36.892Z,25.17
2023-04-29T03:29:06.959Z,25.16
2023-04-29T03:31:38.227Z,25.14
2023-04-29T03:34:11.651Z,25.11
2023-04-29T03:36:44.092Z,25.07
2023-04-29T03:39:15.334Z,25.08
2023-04-29T03:41:47.221Z,25.07
2023-04-29T03:44:19.512Z,25.04
2023-04-29T03:46:49.282Z,25.03
2023-04-29T03:49:19.505Z,24.99
2023-04-29T03:51:53.635Z,24.99
2023-04-29T03:54:21.550Z,24.97
2023-04-29T03:56:49.150Z,24.94
2023-04-29T03:59:19.841Z,24.96
2023-04-29T04:01:47.335Z,24.91
2023-04-29T04:04:18.389Z,24.91
2023-04-29T04:06:51.974Z,24.93
2023-04-29T04:09:25.305Z,24.95
2023-04-29T04:11:57.515Z,24.92
2023-04-29T04:14:25.122Z,24.86
2023-04-29T04:16:52.718Z,24.88
2023-04-29T04:19:22.495Z,24.87
2023-04-29T04:21:50.506Z,24.89
2023-04-29T04:24:21.193Z,24.88
2023-04-29T04:26:48.732Z,24.89
2023-04-29T04:29:27.596Z,24.86
2023-04-29T04:32:05.905Z,24.85
2023-04-29T04:34:39.477Z,24.85
2023-04-29T04:37:06.918Z,24.83
2023-04-29T04:39:39.323Z,24.82
2023-04-29T04:42:09.582Z,24.81
2023-04-29T04:44:37.687Z,24.84
2023-04-29T04:47:13.894Z,24.86
2023-04-29T04:49:53.035Z,24.86
2023-04-29T04:52:23.814Z,24.81
2023-04-29T04:55:04.739Z,24.85
2023-04-29T04:57:36.047Z,24.83
2023-04-29T05:00:07.109Z,24.79
2023-04-29T05:02:37.965Z,24.79
2023-04-29T05:05:06.471Z,24.80
2023-04-29T05:07:40.006Z,24.82
2023-04-29T05:10:08.530Z,24.84
2023-04-29T05:12:44.969Z,24.82
2023-04-29T05:15:14.980Z,24.84
2023-04-29T05:17:48.294Z,24.83
2023-04-29T05:20:18.409Z,24.83
2023-04-29T05:22:46.114Z,24.82
2023-04-29T05:25:14.450Z,24.83
2023-04-29T05:27:47.795Z,24.83
2023-04-29T05:30:20.437Z,24.84
2023-04-29T05:32:57.721Z,24.82
2023-04-29T05:35:25.542Z,24.81
2023-04-29T05:37:57.459Z,24.81
2023-04-29T05:40:36.257Z,24.82
2023-04-29T05:43:28.367Z,24.84
2023-04-29T05:45:59.913Z,24.81
2023-04-29T05:48:30.458Z,24.85
2023-04-29T05:50:58.284Z,24.84
2023-04-29T05:53:28.381Z,24.83
2023-04-29T05:55:58.442Z,24.84
2023-04-29T05:58:28.817Z,24.84
2023-04-29T06:01:00.054Z,24.85
2023-04-29T06:03:27.987Z,24.84
2023-04-29T06:06:16.405Z,24.84
2023-04-29T06:09:10.850Z,24.84
2023-04-29T06:11:49.106Z,24.82
2023-04-29T06:14:16.597Z,24.81
2023-04-29T06:16:46.809Z,24.82
2023-04-29T06:19:25.357Z,24.81
2023-04-29T06:21:58.745Z,24.83
2023-04-29T06:24:27.204Z,24.83
2023-04-29T06:26:57.224Z,24.81
2023-04-29T06:29:29.423Z,24.82
2023-04-29T06:31:56.991Z,24.83
2023-04-29T06:34:27.060Z,24.83
2023-04-29T06:37:20.261Z,24.81
2023-04-29T06:40:13.615Z,24.81
2023-04-29T06:43:02.158Z,24.82
2023-04-29T06:45:46.540Z,24.80
2023-04-29T06:48:31.629Z,24.83
2023-04-29T06:51:01.570Z,24.82
2023-04-29T06:53:28.957Z,24.81
2023-04-29T06:55:56.290Z,24.80
2023-04-29T06:58:23.891Z,24.83
2023-04-29T07:00:51.797Z,24.84
2023-04-29T07:03:22.431Z,24.81
2023-04-29T07:05:51.105Z,24.82
2023-04-29T07:08:18.480Z,24.82
2023-04-29T07:10:58.263Z,24.84
2023-04-29T07:13:28.134Z,24.85
2023-04-29T07:15:58.354Z,24.86
2023-04-29T07:18:26.244Z,24.85
2023-04-29T07:21:01.295Z,24.85
2023-04-29T07:23:28.574Z,24.84
2023-04-29T07:25:58.720Z,24.87
2023-04-29T07:28:28.666Z,24.84
2023-04-29T07:30:56.093Z,24.86
2023-04-29T07:33:23.622Z,24.90
2023-04-29T07:35:55.620Z,24.90
2023-04-29T07:38:25.487Z,24.87
2023-04-29T07:40:52.896Z,24.91
2023-04-29T07:43:25.608Z,24.88
2023-04-29T07:45:58.306Z,24.90
2023-04-29T07:48:28.505Z,24.88
2023-04-29T07:51:01.687Z,24.91
2023-04-29T07:53:37.159Z,24.90
2023-04-29T07:56:10.100Z,24.95
2023-04-29T07:58:40.142Z,24.91
2023-04-29T08:01:09.159Z,25.01
2023-04-29T08:03:41.396Z,25.01
2023-04-29T08:06:15.349Z,25.01
2023-04-29T08:08:44.148Z,24.97
2023-04-29T08:11:21.517Z,24.98
2023-04-29T08:13:51.332Z,24.99
2023-04-29T08:16:18.832Z,25.01
2023-04-29T08:18:46.445Z,25.03
2023-04-29T08:21:17.414Z,25.10
2023-04-29T08:23:49.435Z,25.20
2023-04-29T08:26:17.662Z,25.25
2023-04-29T08:28:45.272Z,25.29
2023-04-29T08:31:20.282Z,25.36
2023-04-29T08:33:53.806Z,25.39
2023-04-29T08:36:23.876Z,25.47
2023-04-29T08:38:55.546Z,25.47
2023-04-29T08:41:29.065Z,25.55
2023-04-29T08:43:57.033Z,25.54
2023-04-29T08:46:26.291Z,25.53
2023-04-29T08:48:57.541Z,25.53
2023-04-29T08:51:28.138Z,25.57
2023-04-29T08:53:56.972Z,25.62
2023-04-29T08:56:25.741Z,25.71
2023-04-29T08:58:59.548Z,25.70
2023-04-29T09:01:33.872Z,25.71
2023-04-29T09:04:20.123Z,25.66
2023-04-29T09:06:59.393Z,25.74
2023-04-29T09:09:27.488Z,25.75
2023-04-29T09:11:57.702Z,25.80
2023-04-29T09:14:28.361Z,25.85
2023-04-29T09:17:00.053Z,25.79
2023-04-29T09:19:37.192Z,25.77
2023-04-29T09:22:11.105Z,25.80
2023-04-29T09:24:39.994Z,25.78
2023-04-29T09:27:08.136Z,25.79
2023-04-29T09:29:57.581Z,25.88
2023-04-29T09:32:26.847Z,25.82
2023-04-29T09:35:29.365Z,25.83
2023-04-29T09:38:16.296Z,25.88
2023-04-29T09:40:58.082Z,25.89
2023-04-29T09:43:29.587Z,25.99
2023-04-29T09:46:00.238Z,25.92
2023-04-29T09:48:34.123Z,26.00
2023-04-29T09:51:03.342Z,25.99
2023-04-29T09:53:31.750Z,26.06
2023-04-29T09:56:02.574Z,26.04
2023-04-29T09:58:37.299Z,26.15
2023-04-29T10:01:06.119Z,26.12
2023-04-29T10:03:36.387Z,26.04
2023-04-29T10:06:06.754Z,26.14
2023-04-29T10:08:35.286Z,26.15
2023-04-29T10:11:05.870Z,26.11
2023-04-29T10:13:38.936Z,26.11
2023-04-29T10:16:12.369Z,26.11
2023-04-29T10:18:44.363Z,26.09
2023-04-29T10:21:17.321Z,26.05
2023-04-29T10:23:50.384Z,26.07
2023-04-29T10:26:22.296Z,26.12
2023-04-29T10:28:51.754Z,26.17
2023-04-29T10:31:20.218Z,26.11
2023-04-29T10:33:48.302Z,26.10
2023-04-29T10:36:17.620Z,26.08
2023-04-29T10:38:52.824Z,26.12
2023-04-29T10:41:28.690Z,26.14
2023-04-29T10:44:04.100Z,26.23
2023-04-29T10:46:38.088Z,26.22
2023-04-29T10:49:09.445Z,26.13
2023-04-29T10:51:46.235Z,26.23
2023-04-29T10:54:17.664Z,26.20
2023-04-29T10:56:50.976Z,26.21
2023-04-29T10:59:33.214Z,26.15
2023-04-29T11:02:03.673Z,26.19
2023-04-29T11:04:37.972Z,26.25
2023-04-29T11:07:10.859Z,26.25
2023-04-29T11:09:38.734Z,26.27
2023-04-29T11:12:09.512Z,26.27
2023-04-29T11:14:41.282Z,26.28
2023-04-29T11:17:13.731Z,26.28
2023-04-29T11:19:45.167Z,26.20
2023-04-29T11:22:14.410Z,26.25
2023-04-29T11:24:49.594Z,26.26
2023-04-29T11:27:25.826Z,26.29
2023-04-29T11:29:58.569Z,26.35
2023-04-29T11:32:35.297Z,26.37
2023-04-29T11:35:13.965Z,26.32
2023-04-29T11:37:42.969Z,26.35
2023-04-29T11:40:13.306Z,26.33
2023-04-29T11:42:48.382Z,26.30
2023-04-29T11:45:19.347Z,26.26
2023-04-29T11:47:49.967Z,26.39
2023-04-29T11:50:25.975Z,26.34
2023-04-29T11:52:58.026Z,26.37
2023-04-29T11:55:28.342Z,26.42
2023-04-29T11:57:58.795Z,26.40
2023-04-29T12:00:29.420Z,26.38
2023-04-29T12:02:58.820Z,26.37
2023-04-29T12:05:27.013Z,26.39
2023-04-29T12:08:00.023Z,26.37
2023-04-29T12:10:29.527Z,26.43
2023-04-29T12:12:57.207Z,26.40
2023-04-29T12:15:29.341Z,26.39
2023-04-29T12:17:57.105Z,26.36
2023-04-29T12:20:25.397Z,26.27
2023-04-29T12:22:53.504Z,26.25
2023-04-29T12:25:26.653Z,26.27
2023-04-29T12:28:05.635Z,26.37
2023-04-29T12:30:37.574Z,26.36
2023-04-29T12:33:07.686Z,26.32
2023-04-29T12:35:40.022Z,26.33
2023-04-29T12:38:14.617Z,26.36
2023-04-29T12:40:45.801Z,26.39
2023-04-29T12:43:16.204Z,26.38
2023-04-29T12:45:54.466Z,26.32
2023-04-29T12:48:34.029Z,26.35
2023-04-29T12:51:11.902Z,26.38
2023-04-29T12:53:41.522Z,26.40
2023-04-29T12:56:12.018Z,26.35
2023-04-29T12:58:42.239Z,26.35
2023-04-29T13:01:11.210Z,26.28
2023-04-29T13:03:39.315Z,26.27
2023-04-29T13:06:09.169Z,26.27
2023-04-29T13:08:39.329Z,26.38
2023-04-29T13:11:09.318Z,26.34
2023-04-29T13:13:41.891Z,26.36
2023-04-29T13:16:15.116Z,26.40
2023-04-29T13:18:53.433Z,26.29
2023-04-29T13:21:34.677Z,26.28
2023-04-29T13:24:08.479Z,26.28
2023-04-29T13:26:36.137Z,26.37
2023-04-29T13:29:04.277Z,26.28
2023-04-29T13:31:33.530Z,26.35
2023-04-29T13:34:06.417Z,26.42
2023-04-29T13:36:40.445Z,26.38
2023-04-29T13:39:14.447Z,26.35
2023-04-29T13:41:47.016Z,26.35
2023-04-29T13:44:27.119Z,26.33
2023-04-29T13:47:05.288Z,26.41
2023-04-29T13:52:58.418Z,26.41
2023-04-29T13:55:21.977Z,26.40
2023-04-29T13:58:36.200Z,26.42
2023-04-29T14:01:01.409Z,26.43
2023-04-29T14:03:14.936Z,26.35
2023-04-29T14:05:42.539Z,26.37
2023-04-29T14:08:10.209Z,26.40
2023-04-29T14:10:37.815Z,26.33
2023-04-29T14:13:05.389Z,26.47
2023-04-29T14:15:38.783Z,26.45
2023-04-29T14:18:09.895Z,26.34
2023-04-29T14:20:39.497Z,26.37
2023-04-29T14:23:06.933Z,26.48
2023-04-29T14:25:36.759Z,26.38
2023-04-29T14:28:08.619Z,26.38
2023-04-29T14:30:46.189Z,26.43
2023-04-29T14:33:20.355Z,26.44
2023-04-29T14:35:47.543Z,26.41
2023-04-29T14:38:17.387Z,26.40
2023-04-29T14:40:44.784Z,26.40
2023-04-29T14:43:14.468Z,26.33
2023-04-29T14:45:48.596Z,26.22
2023-04-29T14:48:19.925Z,26.19
2023-04-29T14:50:49.649Z,26.08
2023-04-29T14:53:19.894Z,26.00
2023-04-29T14:55:47.469Z,25.97
2023-04-29T14:58:15.170Z,25.99
2023-04-29T15:00:50.517Z,26.01
2023-04-29T15:03:22.629Z,25.93
2023-04-29T15:05:56.446Z,25.98
2023-04-29T15:08:24.340Z,25.92
2023-04-29T15:10:56.798Z,25.91
2023-04-29T15:13:26.879Z,25.86
2023-04-29T15:15:59.380Z,25.85
2023-04-29T15:18:27.070Z,25.88
2023-04-29T15:20:59.840Z,25.86
2023-04-29T15:23:31.251Z,25.83
2023-04-29T15:25:58.940Z,25.83
2023-04-29T15:28:31.675Z,25.79
2023-04-29T15:31:01.866Z,25.79
2023-04-29T15:33:33.101Z,25.79
2023-04-29T15:36:00.666Z,25.80
2023-04-29T15:38:34.022Z,25.76
2023-04-29T15:41:06.872Z,25.78
2023-04-29T15:43:34.454Z,25.75
2023-04-29T15:46:07.757Z,25.75
2023-04-29T15:48:35.482Z,25.75
2023-04-29T15:51:05.932Z,25.74
2023-04-29T15:53:35.939Z,25.77
2023-04-29T15:56:05.916Z,25.79
2023-04-29T15:58:36.550Z,25.76
2023-04-29T16:01:09.755Z,25.76
2023-04-29T16:03:40.007Z,25.76
2023-04-29T16:06:09.992Z,25.75
2023-04-29T16:08:42.281Z,25.71
2023-04-29T16:11:12.418Z,25.73
2023-04-29T16:13:40.040Z,25.71
2023-04-29T16:16:10.577Z,25.69
2023-04-29T16:18:42.807Z,25.69
2023-04-29T16:21:13.414Z,25.70
2023-04-29T16:23:40.927Z,25.71
2023-04-29T16:26:08.663Z,25.69
2023-04-29T16:28:36.814Z,25.69
2023-04-29T16:31:07.620Z,25.65
2023-04-29T16:33:37.094Z,25.64
2023-04-29T16:36:07.411Z,25.69
2023-04-29T16:38:38.069Z,25.70
2023-04-29T16:41:07.279Z,25.66
2023-04-29T16:43:40.022Z,25.66
2023-04-29T16:46:12.305Z,25.65
2023-04-29T16:48:45.751Z,25.64
2023-04-29T16:51:13.964Z,25.67
2023-04-29T16:53:41.215Z,25.65
2023-04-29T16:56:09.272Z,25.67
2023-04-29T16:58:36.760Z,25.65
2023-04-29T17:01:07.935Z,25.65
2023-04-29T17:03:38.767Z,25.63
2023-04-29T17:06:06.876Z,25.61
2023-04-29T17:08:39.831Z,25.63
2023-04-29T17:11:10.451Z,25.64
2023-04-29T17:13:40.866Z,25.65
2023-04-29T17:16:11.607Z,25.62
2023-04-29T17:18:41.401Z,25.62
2023-04-29T17:21:08.990Z,25.61
2023-04-29T17:23:38.843Z,25.62
2023-04-29T17:26:08.733Z,25.64
2023-04-29T17:28:37.172Z,25.62
2023-04-29T17:31:06.346Z,25.62
2023-04-29T17:33:35.154Z,25.57
2023-04-29T17:36:06.451Z,25.63
2023-04-29T17:38:36.715Z,25.62
2023-04-29T17:41:09.044Z,25.64
2023-04-29T17:43:39.443Z,25.60
2023-04-29T17:46:09.769Z,25.60
2023-04-29T17:48:42.945Z,25.62
2023-04-29T17:51:12.676Z,25.59
2023-04-29T17:53:42.606Z,25.59
2023-04-29T17:56:09.919Z,25.59
2023-04-29T17:58:37.330Z,25.59
2023-04-29T18:01:06.288Z,25.57
2023-04-29T18:03:39.244Z,25.61
2023-04-29T18:06:12.835Z,25.57
2023-04-29T18:08:40.670Z,25.54
2023-04-29T18:11:10.989Z,25.52
2023-04-29T18:13:39.242Z,25.53
2023-04-29T18:16:08.097Z,25.54
2023-04-29T18:18:38.018Z,25.54
2023-04-29T18:21:07.814Z,25.56
2023-04-29T18:23:36.086Z,25.55
2023-04-29T18:26:11.155Z,25.54
2023-04-29T18:28:42.271Z,25.54
2023-04-29T18:31:16.749Z,25.56
2023-04-29T18:33:44.885Z,25.55
2023-04-29T18:36:15.617Z,25.51
2023-04-29T18:38:46.172Z,25.51
2023-04-29T18:41:16.299Z,25.53
2023-04-29T18:43:47.262Z,25.54
2023-04-29T18:46:17.328Z,25.54
2023-04-29T18:48:48.416Z,25.56
2023-04-29T18:51:16.018Z,25.53
2023-04-29T18:53:45.790Z,25.53
2023-04-29T18:56:16.302Z,25.50
2023-04-29T18:58:43.589Z,25.54
2023-04-29T19:01:11.146Z,25.53
2023-04-29T19:03:39.161Z,25.51
2023-04-29T19:06:06.750Z,25.49
2023-04-29T19:08:34.096Z,25.54
2023-04-29T19:11:06.456Z,25.52
2023-04-29T19:13:36.694Z,25.53
2023-04-29T19:16:04.407Z,25.52
2023-04-29T19:18:37.223Z,25.52
2023-04-29T19:21:06.755Z,25.50
2023-04-29T19:23:37.337Z,25.51
2023-04-29T19:26:04.831Z,25.53
2023-04-29T19:28:34.935Z,25.50
2023-04-29T19:31:05.874Z,25.50
2023-04-29T19:33:33.493Z,25.52
2023-04-29T19:36:00.982Z,25.51
2023-04-29T19:38:30.657Z,25.47
2023-04-29T19:40:58.912Z,25.48
2023-04-29T19:43:32.091Z,25.48
2023-04-29T19:46:01.857Z,25.49
2023-04-29T19:48:33.028Z,25.49
2023-04-29T19:51:05.785Z,25.48
2023-04-29T19:53:33.161Z,25.49
2023-04-29T19:56:01.023Z,25.48
2023-04-29T19:58:28.701Z,25.47
2023-04-29T20:00:59.507Z,25.48
2023-04-29T20:03:30.120Z,25.48
2023-04-29T20:05:59.248Z,25.47
2023-04-29T20:08:29.790Z,25.48
2023-04-29T20:10:57.538Z,25.41
2023-04-29T20:13:33.110Z,25.42
2023-04-29T20:16:03.717Z,25.43
2023-04-29T20:18:37.451Z,25.46
2023-04-29T20:21:05.818Z,25.43
2023-04-29T20:23:33.436Z,25.43
2023-04-29T20:26:01.493Z,25.42
2023-04-29T20:28:29.124Z,25.39
2023-04-29T20:31:01.749Z,25.41
2023-04-29T20:33:29.557Z,25.45
2023-04-29T20:36:05.487Z,25.42
2023-04-29T20:38:35.238Z,25.45
2023-04-29T20:41:03.583Z,25.45
2023-04-29T20:43:31.574Z,25.43
2023-04-29T20:46:00.504Z,25.42
2023-04-29T20:48:30.997Z,25.38
2023-04-29T20:51:01.561Z,25.38
2023-04-29T20:53:29.036Z,25.39
2023-04-29T20:55:56.550Z,25.42
2023-04-29T20:58:28.324Z,25.38
2023-04-29T21:00:55.687Z,25.36
2023-04-29T21:03:25.997Z,25.41
2023-04-29T21:05:56.687Z,25.57
2023-04-29T21:08:34.401Z,25.70
2023-04-29T21:11:05.184Z,25.84
2023-04-29T21:13:39.896Z,26.02
2023-04-29T21:16:12.825Z,26.13
2023-04-29T21:18:43.576Z,26.29
2023-04-29T21:21:14.447Z,26.30
2023-04-29T21:23:41.850Z,26.36
2023-04-29T21:26:17.461Z,26.38
2023-04-29T21:28:45.057Z,26.44
2023-04-29T21:31:16.499Z,26.45
2023-04-29T21:33:46.626Z,26.49
2023-04-29T21:36:14.394Z,26.61
2023-04-29T21:38:42.783Z,26.59
2023-04-29T21:41:31.091Z,26.55
2023-04-29T21:44:02.411Z,26.67
2023-04-29T21:46:34.456Z,26.60
2023-04-29T21:49:07.153Z,26.68
2023-04-29T21:51:35.131Z,26.75
2023-04-29T21:54:08.395Z,26.61
2023-04-29T21:56:41.239Z,26.71
2023-04-29T21:59:13.615Z,26.74
2023-04-29T22:01:59.693Z,26.65
2023-04-29T22:04:30.900Z,26.69
2023-04-29T22:07:03.683Z,26.80
2023-04-29T22:09:33.468Z,26.78
2023-04-29T22:12:03.965Z,26.80
2023-04-29T22:14:38.874Z,26.87
2023-04-29T22:17:09.212Z,26.85
2023-04-29T22:19:37.088Z,26.75
2023-04-29T22:22:09.006Z,26.73
2023-04-29T22:24:38.787Z,26.74
2023-04-29T22:27:06.266Z,26.71
2023-04-29T22:29:37.032Z,26.78
2023-04-29T22:32:08.174Z,26.72
2023-04-29T22:34:40.842Z,26.80
2023-04-29T22:37:09.060Z,26.75
2023-04-29T22:39:44.604Z,26.74
2023-04-29T22:42:12.198Z,26.71
2023-04-29T22:44:39.790Z,26.75
2023-04-29T22:47:09.859Z,26.85
2023-04-29T22:49:40.984Z,26.80
2023-04-29T22:52:12.089Z,26.81
2023-04-29T22:54:41.885Z,26.80
2023-04-29T22:57:14.850Z,26.81
2023-04-29T22:59:45.149Z,26.81
2023-04-29T23:02:15.857Z,26.70
2023-04-29T23:04:43.251Z,26.76
2023-04-29T23:07:11.006Z,26.76
2023-04-29T23:09:40.707Z,26.71
2023-04-29T23:12:11.289Z,26.79
2023-04-29T23:14:40.932Z,26.71
2023-04-29T23:17:10.895Z,26.75
2023-04-29T23:19:42.434Z,26.72
2023-04-29T23:22:12.962Z,26.67
2023-04-29T23:24:46.385Z,26.71
2023-04-29T23:27:18.982Z,26.67
2023-04-29T23:29:49.002Z,26.66
2023-04-29T23:32:24.988Z,26.67
2023-04-29T23:34:54.754Z,26.67
2023-04-29T23:37:30.198Z,26.67
2023-04-29T23:40:00.149Z,26.75
2023-04-29T23:42:30.115Z,26.71
2023-04-29T23:44:58.217Z,26.70
2023-04-29T23:47:26.217Z,26.72
2023-04-29T23:49:54.908Z,26.58
2023-04-29T23:52:25.298Z,26.68
2023-04-29T23:54:52.671Z,26.70
2023-04-29T23:57:22.801Z,26.69
2023-04-29T23:59:53.432Z,26.65
